sensor_id;sensor_type;location;lat;lon;timestamp;P1;durP1;ratioP1;P2;durP2;ratioP2
23163;SDS011;31429;42.674;23.350;2022-07-15T00:00:21;31.13;;;20.70;;
23163;SDS011;31429;42.674;23.350;2022-07-15T00:01:21;26.30;;;18.50;;
23163;SDS011;31429;42.674;23.350;2022-07-15T00:02:22;31.73;;;24.47;;
23163;SDS011;31429;42.674;23.350;2022-07-15T00:03:23;13.13;;;5.87;;
23163;SDS011;31429;42.674;23.350;2022-07-15T00:04:23;5.70;;;3.77;;
23163;SDS011;31429;42.674;23.350;2022-07-15T00:05:24;9.83;;;4.30;;
23163;SDS011;31429;42.674;23.350;2022-07-15T00:06:25;9.80;;;5.87;;
23163;SDS011;31429;42.674;23.350;2022-07-15T00:07:26;8.23;;;5.00;;
23163;SDS011;31429;42.674;23.350;2022-07-15T00:08:26;9.27;;;5.67;;
23163;SDS011;31429;42.674;23.350;2022-07-15T00:09:28;7.27;;;5.90;;
23163;SDS011;31429;42.674;23.350;2022-07-15T00:10:48;10.73;;;7.63;;
23163;SDS011;31429;42.674;23.350;2022-07-15T00:11:50;12.87;;;8.70;;
23163;SDS011;31429;42.674;23.350;2022-07-15T00:12:52;18.07;;;13.23;;
23163;SDS011;31429;42.674;23.350;2022-07-15T00:13:54;9.20;;;7.40;;
23163;SDS011;31429;42.674;23.350;2022-07-15T00:14:55;14.70;;;8.63;;
23163;SDS011;31429;42.674;23.350;2022-07-15T00:15:56;13.43;;;11.17;;
23163;SDS011;31429;42.674;23.350;2022-07-15T00:16:57;18.37;;;13.07;;
23163;SDS011;31429;42.674;23.350;2022-07-15T00:17:57;14.17;;;9.83;;
23163;SDS011;31429;42.674;23.350;2022-07-15T00:19:01;15.73;;;11.00;;
23163;SDS011;31429;42.674;23.350;2022-07-15T00:20:02;15.33;;;11.33;;
23163;SDS011;31429;42.674;23.350;2022-07-15T00:21:04;24.73;;;18.23;;
23163;SDS011;31429;42.674;23.350;2022-07-15T00:22:04;17.50;;;13.90;;
23163;SDS011;31429;42.674;23.350;2022-07-15T00:23:06;6.93;;;5.50;;
23163;SDS011;31429;42.674;23.350;2022-07-15T00:24:07;4.80;;;3.60;;
23163;SDS011;31429;42.674;23.350;2022-07-15T00:25:08;5.00;;;3.37;;
23163;SDS011;31429;42.674;23.350;2022-07-15T00:26:09;9.53;;;5.70;;
23163;SDS011;31429;42.674;23.350;2022-07-15T00:27:11;8.20;;;3.87;;
23163;SDS011;31429;42.674;23.350;2022-07-15T00:28:12;6.53;;;3.87;;
23163;SDS011;31429;42.674;23.350;2022-07-15T00:29:13;4.47;;;3.30;;
23163;SDS011;31429;42.674;23.350;2022-07-15T00:30:13;3.93;;;3.30;;
23163;SDS011;31429;42.674;23.350;2022-07-15T00:31:14;6.03;;;3.33;;
23163;SDS011;31429;42.674;23.350;2022-07-15T00:32:14;3.63;;;3.30;;
23163;SDS011;31429;42.674;23.350;2022-07-15T00:33:15;7.43;;;3.63;;
23163;SDS011;31429;42.674;23.350;2022-07-15T00:34:16;6.20;;;3.03;;
23163;SDS011;31429;42.674;23.350;2022-07-15T00:35:17;4.73;;;3.20;;
23163;SDS011;31429;42.674;23.350;2022-07-15T00:36:17;5.83;;;3.27;;
23163;SDS011;31429;42.674;23.350;2022-07-15T00:37:18;3.47;;;3.07;;
23163;SDS011;31429;42.674;23.350;2022-07-15T00:38:19;3.53;;;3.23;;
23163;SDS011;31429;42.674;23.350;2022-07-15T00:39:20;4.40;;;3.73;;
23163;SDS011;31429;42.674;23.350;2022-07-15T00:40:21;6.70;;;4.17;;
23163;SDS011;31429;42.674;23.350;2022-07-15T00:41:22;7.17;;;3.40;;
23163;SDS011;31429;42.674;23.350;2022-07-15T00:42:24;5.07;;;3.20;;
23163;SDS011;31429;42.674;23.350;2022-07-15T00:43:43;4.20;;;3.30;;
23163;SDS011;31429;42.674;23.350;2022-07-15T00:44:44;4.30;;;3.10;;
23163;SDS011;31429;42.674;23.350;2022-07-15T00:45:44;4.50;;;3.47;;
23163;SDS011;31429;42.674;23.350;2022-07-15T00:46:46;3.07;;;2.83;;
23163;SDS011;31429;42.674;23.350;2022-07-15T00:47:48;3.97;;;3.30;;
23163;SDS011;31429;42.674;23.350;2022-07-15T00:48:51;8.83;;;6.60;;
23163;SDS011;31429;42.674;23.350;2022-07-15T00:49:51;6.30;;;4.50;;
23163;SDS011;31429;42.674;23.350;2022-07-15T00:50:52;6.30;;;3.37;;
23163;SDS011;31429;42.674;23.350;2022-07-15T00:51:54;3.93;;;3.10;;
23163;SDS011;31429;42.674;23.350;2022-07-15T00:52:58;4.53;;;2.80;;
23163;SDS011;31429;42.674;23.350;2022-07-15T00:54:02;3.37;;;2.80;;
23163;SDS011;31429;42.674;23.350;2022-07-15T00:55:05;5.20;;;3.83;;
23163;SDS011;31429;42.674;23.350;2022-07-15T00:56:09;6.50;;;3.70;;
23163;SDS011;31429;42.674;23.350;2022-07-15T00:57:10;5.93;;;4.30;;
23163;SDS011;31429;42.674;23.350;2022-07-15T00:58:15;6.63;;;5.20;;
23163;SDS011;31429;42.674;23.350;2022-07-15T00:59:17;8.53;;;6.40;;
23163;SDS011;31429;42.674;23.350;2022-07-15T01:00:20;9.63;;;6.10;;
23163;SDS011;31429;42.674;23.350;2022-07-15T01:01:21;10.97;;;7.77;;
23163;SDS011;31429;42.674;23.350;2022-07-15T01:02:22;6.77;;;4.87;;
23163;SDS011;31429;42.674;23.350;2022-07-15T01:03:23;6.73;;;6.03;;
23163;SDS011;31429;42.674;23.350;2022-07-15T01:04:26;10.50;;;7.53;;
23163;SDS011;31429;42.674;23.350;2022-07-15T01:05:28;6.87;;;5.67;;
23163;SDS011;31429;42.674;23.350;2022-07-15T01:06:30;8.20;;;6.47;;
23163;SDS011;31429;42.674;23.350;2022-07-15T01:07:31;6.40;;;5.07;;
23163;SDS011;31429;42.674;23.350;2022-07-15T01:08:32;8.67;;;4.10;;
23163;SDS011;31429;42.674;23.350;2022-07-15T01:09:33;7.10;;;5.17;;
23163;SDS011;31429;42.674;23.350;2022-07-15T01:10:34;5.50;;;3.80;;
23163;SDS011;31429;42.674;23.350;2022-07-15T01:11:36;6.83;;;4.10;;
23163;SDS011;31429;42.674;23.350;2022-07-15T01:12:37;7.77;;;4.03;;
23163;SDS011;31429;42.674;23.350;2022-07-15T01:13:42;6.07;;;4.00;;
23163;SDS011;31429;42.674;23.350;2022-07-15T01:14:42;5.10;;;3.57;;
23163;SDS011;31429;42.674;23.350;2022-07-15T01:15:43;5.33;;;4.23;;
23163;SDS011;31429;42.674;23.350;2022-07-15T01:16:44;7.47;;;4.37;;
23163;SDS011;31429;42.674;23.350;2022-07-15T01:17:45;4.43;;;3.30;;
23163;SDS011;31429;42.674;23.350;2022-07-15T01:18:46;7.70;;;3.93;;
23163;SDS011;31429;42.674;23.350;2022-07-15T01:19:47;5.13;;;3.77;;
23163;SDS011;31429;42.674;23.350;2022-07-15T01:20:49;5.87;;;5.27;;
23163;SDS011;31429;42.674;23.350;2022-07-15T01:21:49;6.97;;;4.40;;
23163;SDS011;31429;42.674;23.350;2022-07-15T01:22:50;7.57;;;4.70;;
23163;SDS011;31429;42.674;23.350;2022-07-15T01:23:51;8.63;;;4.20;;
23163;SDS011;31429;42.674;23.350;2022-07-15T01:24:51;5.27;;;3.70;;
23163;SDS011;31429;42.674;23.350;2022-07-15T01:25:52;9.10;;;3.50;;
23163;SDS011;31429;42.674;23.350;2022-07-15T01:26:53;4.20;;;3.40;;
23163;SDS011;31429;42.674;23.350;2022-07-15T01:27:54;5.63;;;5.07;;
23163;SDS011;31429;42.674;23.350;2022-07-15T01:28:55;6.67;;;4.87;;
23163;SDS011;31429;42.674;23.350;2022-07-15T01:29:55;7.80;;;5.10;;
23163;SDS011;31429;42.674;23.350;2022-07-15T01:30:56;6.03;;;5.43;;
23163;SDS011;31429;42.674;23.350;2022-07-15T01:31:57;4.77;;;3.20;;
23163;SDS011;31429;42.674;23.350;2022-07-15T01:32:57;3.23;;;2.93;;
23163;SDS011;31429;42.674;23.350;2022-07-15T01:33:58;3.10;;;2.80;;
23163;SDS011;31429;42.674;23.350;2022-07-15T01:34:59;3.40;;;3.07;;
23163;SDS011;31429;42.674;23.350;2022-07-15T01:36:01;4.17;;;3.03;;
23163;SDS011;31429;42.674;23.350;2022-07-15T01:37:02;5.90;;;3.73;;
23163;SDS011;31429;42.674;23.350;2022-07-15T01:38:03;4.57;;;3.90;;
23163;SDS011;31429;42.674;23.350;2022-07-15T01:39:04;4.53;;;4.10;;
23163;SDS011;31429;42.674;23.350;2022-07-15T01:40:05;5.40;;;4.27;;
23163;SDS011;31429;42.674;23.350;2022-07-15T01:41:07;3.43;;;2.90;;
23163;SDS011;31429;42.674;23.350;2022-07-15T01:42:08;7.13;;;4.33;;
23163;SDS011;31429;42.674;23.350;2022-07-15T01:43:08;6.73;;;4.20;;
23163;SDS011;31429;42.674;23.350;2022-07-15T01:44:09;3.57;;;3.13;;
23163;SDS011;31429;42.674;23.350;2022-07-15T01:45:11;3.63;;;3.27;;
23163;SDS011;31429;42.674;23.350;2022-07-15T01:46:12;5.30;;;3.23;;
23163;SDS011;31429;42.674;23.350;2022-07-15T01:47:13;5.13;;;4.33;;
23163;SDS011;31429;42.674;23.350;2022-07-15T01:48:13;6.80;;;4.13;;
23163;SDS011;31429;42.674;23.350;2022-07-15T01:49:33;8.70;;;4.07;;
23163;SDS011;31429;42.674;23.350;2022-07-15T01:50:33;4.57;;;3.50;;
23163;SDS011;31429;42.674;23.350;2022-07-15T01:51:35;6.90;;;4.33;;
23163;SDS011;31429;42.674;23.350;2022-07-15T01:52:36;4.77;;;4.20;;
23163;SDS011;31429;42.674;23.350;2022-07-15T01:53:37;7.03;;;3.77;;
23163;SDS011;31429;42.674;23.350;2022-07-15T01:54:38;6.77;;;4.00;;
23163;SDS011;31429;42.674;23.350;2022-07-15T01:55:39;3.70;;;3.30;;
23163;SDS011;31429;42.674;23.350;2022-07-15T01:56:39;4.43;;;3.30;;
23163;SDS011;31429;42.674;23.350;2022-07-15T01:57:40;5.80;;;4.10;;
23163;SDS011;31429;42.674;23.350;2022-07-15T01:58:41;4.67;;;3.40;;
23163;SDS011;31429;42.674;23.350;2022-07-15T01:59:42;7.63;;;4.20;;
23163;SDS011;31429;42.674;23.350;2022-07-15T02:00:43;3.63;;;3.33;;
23163;SDS011;31429;42.674;23.350;2022-07-15T02:01:44;5.50;;;3.33;;
23163;SDS011;31429;42.674;23.350;2022-07-15T02:02:45;4.10;;;3.70;;
23163;SDS011;31429;42.674;23.350;2022-07-15T02:03:46;4.13;;;3.53;;
23163;SDS011;31429;42.674;23.350;2022-07-15T02:04:46;5.20;;;3.60;;
23163;SDS011;31429;42.674;23.350;2022-07-15T02:05:47;4.13;;;3.50;;
23163;SDS011;31429;42.674;23.350;2022-07-15T02:06:49;4.63;;;3.37;;
23163;SDS011;31429;42.674;23.350;2022-07-15T02:07:50;4.00;;;3.40;;
23163;SDS011;31429;42.674;23.350;2022-07-15T02:08:51;4.13;;;3.73;;
23163;SDS011;31429;42.674;23.350;2022-07-15T02:09:51;4.73;;;3.63;;
23163;SDS011;31429;42.674;23.350;2022-07-15T02:10:52;4.07;;;3.63;;
23163;SDS011;31429;42.674;23.350;2022-07-15T02:11:53;6.10;;;3.80;;
23163;SDS011;31429;42.674;23.350;2022-07-15T02:12:53;6.70;;;3.50;;
23163;SDS011;31429;42.674;23.350;2022-07-15T02:13:54;4.30;;;3.87;;
23163;SDS011;31429;42.674;23.350;2022-07-15T02:14:58;4.40;;;3.50;;
23163;SDS011;31429;42.674;23.350;2022-07-15T02:15:59;4.73;;;2.93;;
23163;SDS011;31429;42.674;23.350;2022-07-15T02:16:59;4.37;;;3.40;;
23163;SDS011;31429;42.674;23.350;2022-07-15T02:18:00;3.90;;;3.50;;
23163;SDS011;31429;42.674;23.350;2022-07-15T02:19:01;3.40;;;3.10;;
23163;SDS011;31429;42.674;23.350;2022-07-15T02:20:02;4.07;;;3.10;;
23163;SDS011;31429;42.674;23.350;2022-07-15T02:21:04;3.63;;;3.30;;
23163;SDS011;31429;42.674;23.350;2022-07-15T02:22:06;5.57;;;3.50;;
23163;SDS011;31429;42.674;23.350;2022-07-15T02:23:07;6.17;;;3.43;;
23163;SDS011;31429;42.674;23.350;2022-07-15T02:24:09;6.13;;;3.27;;
23163;SDS011;31429;42.674;23.350;2022-07-15T02:25:10;6.37;;;2.97;;
23163;SDS011;31429;42.674;23.350;2022-07-15T02:26:11;3.80;;;3.50;;
23163;SDS011;31429;42.674;23.350;2022-07-15T02:27:12;3.93;;;3.57;;
23163;SDS011;31429;42.674;23.350;2022-07-15T02:28:13;4.03;;;3.57;;
23163;SDS011;31429;42.674;23.350;2022-07-15T02:29:14;4.57;;;3.60;;
23163;SDS011;31429;42.674;23.350;2022-07-15T02:30:14;3.27;;;3.00;;
23163;SDS011;31429;42.674;23.350;2022-07-15T02:31:15;6.93;;;3.43;;
23163;SDS011;31429;42.674;23.350;2022-07-15T02:32:16;4.67;;;3.37;;
23163;SDS011;31429;42.674;23.350;2022-07-15T02:33:16;4.30;;;3.30;;
23163;SDS011;31429;42.674;23.350;2022-07-15T02:34:17;5.77;;;3.63;;
23163;SDS011;31429;42.674;23.350;2022-07-15T02:35:18;3.90;;;3.60;;
23163;SDS011;31429;42.674;23.350;2022-07-15T02:36:18;3.70;;;3.40;;
23163;SDS011;31429;42.674;23.350;2022-07-15T02:37:20;4.90;;;3.80;;
23163;SDS011;31429;42.674;23.350;2022-07-15T02:38:21;6.13;;;3.57;;
23163;SDS011;31429;42.674;23.350;2022-07-15T02:39:22;6.33;;;3.83;;
23163;SDS011;31429;42.674;23.350;2022-07-15T02:40:23;3.90;;;3.50;;
23163;SDS011;31429;42.674;23.350;2022-07-15T02:41:24;4.90;;;3.50;;
23163;SDS011;31429;42.674;23.350;2022-07-15T02:42:24;3.77;;;3.30;;
23163;SDS011;31429;42.674;23.350;2022-07-15T02:43:25;4.80;;;3.40;;
23163;SDS011;31429;42.674;23.350;2022-07-15T02:44:26;4.37;;;3.97;;
23163;SDS011;31429;42.674;23.350;2022-07-15T02:45:28;3.87;;;3.57;;
23163;SDS011;31429;42.674;23.350;2022-07-15T02:46:31;4.00;;;3.70;;
23163;SDS011;31429;42.674;23.350;2022-07-15T02:47:31;4.83;;;4.07;;
23163;SDS011;31429;42.674;23.350;2022-07-15T02:48:32;7.63;;;4.07;;
23163;SDS011;31429;42.674;23.350;2022-07-15T02:49:33;7.07;;;3.93;;
23163;SDS011;31429;42.674;23.350;2022-07-15T02:50:34;4.50;;;3.60;;
23163;SDS011;31429;42.674;23.350;2022-07-15T02:51:35;6.63;;;3.77;;
23163;SDS011;31429;42.674;23.350;2022-07-15T02:52:37;4.13;;;3.73;;
23163;SDS011;31429;42.674;23.350;2022-07-15T02:53:37;4.83;;;4.30;;
23163;SDS011;31429;42.674;23.350;2022-07-15T02:54:39;5.37;;;3.97;;
23163;SDS011;31429;42.674;23.350;2022-07-15T02:55:39;5.50;;;3.70;;
23163;SDS011;31429;42.674;23.350;2022-07-15T02:56:40;3.70;;;3.40;;
23163;SDS011;31429;42.674;23.350;2022-07-15T02:57:41;4.37;;;3.90;;
23163;SDS011;31429;42.674;23.350;2022-07-15T02:58:41;5.00;;;4.13;;
23163;SDS011;31429;42.674;23.350;2022-07-15T02:59:42;4.17;;;3.47;;
23163;SDS011;31429;42.674;23.350;2022-07-15T03:00:43;3.60;;;3.30;;
23163;SDS011;31429;42.674;23.350;2022-07-15T03:01:44;4.33;;;3.93;;
23163;SDS011;31429;42.674;23.350;2022-07-15T03:02:45;4.83;;;3.50;;
23163;SDS011;31429;42.674;23.350;2022-07-15T03:03:46;8.37;;;3.63;;
23163;SDS011;31429;42.674;23.350;2022-07-15T03:04:47;3.37;;;2.40;;
23163;SDS011;31429;42.674;23.350;2022-07-15T03:05:48;2.97;;;2.63;;
23163;SDS011;31429;42.674;23.350;2022-07-15T03:06:48;4.93;;;2.60;;
23163;SDS011;31429;42.674;23.350;2022-07-15T03:07:50;3.23;;;2.73;;
23163;SDS011;31429;42.674;23.350;2022-07-15T03:08:51;4.90;;;2.80;;
23163;SDS011;31429;42.674;23.350;2022-07-15T03:09:52;6.63;;;3.40;;
23163;SDS011;31429;42.674;23.350;2022-07-15T03:10:53;5.20;;;2.93;;
23163;SDS011;31429;42.674;23.350;2022-07-15T03:11:53;3.13;;;2.83;;
23163;SDS011;31429;42.674;23.350;2022-07-15T03:12:54;3.90;;;3.40;;
23163;SDS011;31429;42.674;23.350;2022-07-15T03:13:55;4.03;;;3.63;;
23163;SDS011;31429;42.674;23.350;2022-07-15T03:14:55;5.47;;;3.40;;
23163;SDS011;31429;42.674;23.350;2022-07-15T03:15:56;3.50;;;2.90;;
23163;SDS011;31429;42.674;23.350;2022-07-15T03:16:57;3.80;;;2.73;;
23163;SDS011;31429;42.674;23.350;2022-07-15T03:17:58;5.73;;;2.93;;
23163;SDS011;31429;42.674;23.350;2022-07-15T03:18:59;4.67;;;3.07;;
23163;SDS011;31429;42.674;23.350;2022-07-15T03:19:59;3.97;;;3.00;;
23163;SDS011;31429;42.674;23.350;2022-07-15T03:21:00;4.50;;;3.27;;
23163;SDS011;31429;42.674;23.350;2022-07-15T03:22:02;4.97;;;3.50;;
23163;SDS011;31429;42.674;23.350;2022-07-15T03:23:04;3.97;;;3.27;;
23163;SDS011;31429;42.674;23.350;2022-07-15T03:24:05;4.67;;;3.60;;
23163;SDS011;31429;42.674;23.350;2022-07-15T03:25:08;5.17;;;3.27;;
23163;SDS011;31429;42.674;23.350;2022-07-15T03:26:09;3.23;;;3.00;;
23163;SDS011;31429;42.674;23.350;2022-07-15T03:27:09;8.03;;;3.40;;
23163;SDS011;31429;42.674;23.350;2022-07-15T03:28:10;3.20;;;2.57;;
23163;SDS011;31429;42.674;23.350;2022-07-15T03:29:11;3.40;;;3.10;;
23163;SDS011;31429;42.674;23.350;2022-07-15T03:30:14;4.40;;;3.23;;
23163;SDS011;31429;42.674;23.350;2022-07-15T03:31:15;4.80;;;3.10;;
23163;SDS011;31429;42.674;23.350;2022-07-15T03:32:15;4.43;;;2.60;;
23163;SDS011;31429;42.674;23.350;2022-07-15T03:33:16;7.90;;;2.70;;
23163;SDS011;31429;42.674;23.350;2022-07-15T03:34:17;3.20;;;2.50;;
23163;SDS011;31429;42.674;23.350;2022-07-15T03:35:17;4.17;;;2.70;;
23163;SDS011;31429;42.674;23.350;2022-07-15T03:36:18;2.70;;;2.43;;
23163;SDS011;31429;42.674;23.350;2022-07-15T03:37:19;4.27;;;2.50;;
23163;SDS011;31429;42.674;23.350;2022-07-15T03:38:21;2.70;;;2.50;;
23163;SDS011;31429;42.674;23.350;2022-07-15T03:39:22;3.50;;;3.20;;
23163;SDS011;31429;42.674;23.350;2022-07-15T03:40:22;4.50;;;2.90;;
23163;SDS011;31429;42.674;23.350;2022-07-15T03:41:23;4.33;;;2.47;;
23163;SDS011;31429;42.674;23.350;2022-07-15T03:42:24;2.50;;;2.30;;
23163;SDS011;31429;42.674;23.350;2022-07-15T03:43:24;4.37;;;2.80;;
23163;SDS011;31429;42.674;23.350;2022-07-15T03:44:27;4.37;;;2.80;;
23163;SDS011;31429;42.674;23.350;2022-07-15T03:45:27;4.67;;;2.57;;
23163;SDS011;31429;42.674;23.350;2022-07-15T03:46:28;5.63;;;2.50;;
23163;SDS011;31429;42.674;23.350;2022-07-15T03:47:30;4.03;;;2.23;;
23163;SDS011;31429;42.674;23.350;2022-07-15T03:48:30;3.40;;;2.30;;
23163;SDS011;31429;42.674;23.350;2022-07-15T03:49:31;3.53;;;2.43;;
23163;SDS011;31429;42.674;23.350;2022-07-15T03:50:32;2.93;;;2.03;;
23163;SDS011;31429;42.674;23.350;2022-07-15T03:51:32;2.53;;;2.33;;
23163;SDS011;31429;42.674;23.350;2022-07-15T03:52:33;3.60;;;2.47;;
23163;SDS011;31429;42.674;23.350;2022-07-15T03:53:35;4.37;;;2.33;;
23163;SDS011;31429;42.674;23.350;2022-07-15T03:54:36;3.70;;;2.73;;
23163;SDS011;31429;42.674;23.350;2022-07-15T03:55:37;3.43;;;3.13;;
23163;SDS011;31429;42.674;23.350;2022-07-15T03:56:38;3.70;;;2.60;;
23163;SDS011;31429;42.674;23.350;2022-07-15T03:57:39;3.97;;;3.13;;
23163;SDS011;31429;42.674;23.350;2022-07-15T03:58:39;3.20;;;2.80;;
23163;SDS011;31429;42.674;23.350;2022-07-15T03:59:40;3.73;;;2.77;;
23163;SDS011;31429;42.674;23.350;2022-07-15T04:00:41;2.80;;;2.43;;
23163;SDS011;31429;42.674;23.350;2022-07-15T04:01:42;2.63;;;2.43;;
23163;SDS011;31429;42.674;23.350;2022-07-15T04:02:43;5.63;;;2.90;;
23163;SDS011;31429;42.674;23.350;2022-07-15T04:03:44;4.80;;;2.37;;
23163;SDS011;31429;42.674;23.350;2022-07-15T04:04:44;6.37;;;2.53;;
23163;SDS011;31429;42.674;23.350;2022-07-15T04:05:45;6.83;;;2.97;;
23163;SDS011;31429;42.674;23.350;2022-07-15T04:06:46;3.97;;;2.50;;
23163;SDS011;31429;42.674;23.350;2022-07-15T04:07:46;4.57;;;3.03;;
23163;SDS011;31429;42.674;23.350;2022-07-15T04:08:49;3.97;;;2.43;;
23163;SDS011;31429;42.674;23.350;2022-07-15T04:09:50;4.50;;;2.40;;
23163;SDS011;31429;42.674;23.350;2022-07-15T04:10:50;4.97;;;2.63;;
23163;SDS011;31429;42.674;23.350;2022-07-15T04:11:51;5.03;;;2.70;;
23163;SDS011;31429;42.674;23.350;2022-07-15T04:12:52;4.47;;;2.80;;
23163;SDS011;31429;42.674;23.350;2022-07-15T04:13:52;3.93;;;2.97;;
23163;SDS011;31429;42.674;23.350;2022-07-15T04:14:53;5.23;;;2.70;;
23163;SDS011;31429;42.674;23.350;2022-07-15T04:15:54;3.07;;;2.10;;
23163;SDS011;31429;42.674;23.350;2022-07-15T04:16:54;4.37;;;2.83;;
23163;SDS011;31429;42.674;23.350;2022-07-15T04:17:55;6.70;;;2.70;;
23163;SDS011;31429;42.674;23.350;2022-07-15T04:18:58;2.93;;;2.67;;
23163;SDS011;31429;42.674;23.350;2022-07-15T04:19:59;4.70;;;3.13;;
23163;SDS011;31429;42.674;23.350;2022-07-15T04:21:00;4.23;;;2.77;;
23163;SDS011;31429;42.674;23.350;2022-07-15T04:22:01;3.90;;;2.60;;
23163;SDS011;31429;42.674;23.350;2022-07-15T04:23:02;7.37;;;3.17;;
23163;SDS011;31429;42.674;23.350;2022-07-15T04:24:04;4.70;;;2.67;;
23163;SDS011;31429;42.674;23.350;2022-07-15T04:25:06;4.00;;;2.87;;
23163;SDS011;31429;42.674;23.350;2022-07-15T04:26:07;4.10;;;3.13;;
23163;SDS011;31429;42.674;23.350;2022-07-15T04:27:08;7.60;;;3.00;;
23163;SDS011;31429;42.674;23.350;2022-07-15T04:28:09;3.80;;;2.63;;
23163;SDS011;31429;42.674;23.350;2022-07-15T04:29:10;4.37;;;2.40;;
23163;SDS011;31429;42.674;23.350;2022-07-15T04:30:10;4.03;;;2.70;;
23163;SDS011;31429;42.674;23.350;2022-07-15T04:31:12;6.20;;;2.90;;
23163;SDS011;31429;42.674;23.350;2022-07-15T04:32:13;4.77;;;2.57;;
23163;SDS011;31429;42.674;23.350;2022-07-15T04:33:13;7.33;;;3.70;;
23163;SDS011;31429;42.674;23.350;2022-07-15T04:34:14;5.53;;;3.17;;
23163;SDS011;31429;42.674;23.350;2022-07-15T04:35:15;4.77;;;2.80;;
23163;SDS011;31429;42.674;23.350;2022-07-15T04:36:15;2.93;;;2.57;;
23163;SDS011;31429;42.674;23.350;2022-07-15T04:37:16;4.57;;;2.90;;
23163;SDS011;31429;42.674;23.350;2022-07-15T04:38:17;8.37;;;2.90;;
23163;SDS011;31429;42.674;23.350;2022-07-15T04:39:19;9.93;;;3.57;;
23163;SDS011;31429;42.674;23.350;2022-07-15T04:40:19;7.70;;;2.63;;
23163;SDS011;31429;42.674;23.350;2022-07-15T04:41:20;5.20;;;2.80;;
23163;SDS011;31429;42.674;23.350;2022-07-15T04:42:21;6.67;;;3.00;;
23163;SDS011;31429;42.674;23.350;2022-07-15T04:43:22;6.40;;;3.37;;
23163;SDS011;31429;42.674;23.350;2022-07-15T04:44:24;6.70;;;3.20;;
23163;SDS011;31429;42.674;23.350;2022-07-15T04:45:25;6.90;;;3.77;;
23163;SDS011;31429;42.674;23.350;2022-07-15T04:46:25;5.60;;;2.73;;
23163;SDS011;31429;42.674;23.350;2022-07-15T04:47:26;8.73;;;2.60;;
23163;SDS011;31429;42.674;23.350;2022-07-15T04:48:27;10.40;;;3.20;;
23163;SDS011;31429;42.674;23.350;2022-07-15T04:49:46;4.30;;;3.00;;
23163;SDS011;31429;42.674;23.350;2022-07-15T04:51:05;8.17;;;3.30;;
23163;SDS011;31429;42.674;23.350;2022-07-15T04:52:06;4.97;;;3.57;;
23163;SDS011;31429;42.674;23.350;2022-07-15T04:53:06;5.93;;;2.77;;
23163;SDS011;31429;42.674;23.350;2022-07-15T04:54:08;5.07;;;2.90;;
23163;SDS011;31429;42.674;23.350;2022-07-15T04:55:10;6.97;;;3.10;;
23163;SDS011;31429;42.674;23.350;2022-07-15T04:56:11;5.67;;;3.17;;
23163;SDS011;31429;42.674;23.350;2022-07-15T04:57:12;8.43;;;2.60;;
23163;SDS011;31429;42.674;23.350;2022-07-15T04:58:14;10.30;;;3.03;;
23163;SDS011;31429;42.674;23.350;2022-07-15T04:59:15;7.27;;;3.07;;
23163;SDS011;31429;42.674;23.350;2022-07-15T05:00:15;6.10;;;2.83;;
23163;SDS011;31429;42.674;23.350;2022-07-15T05:01:16;3.80;;;2.67;;
23163;SDS011;31429;42.674;23.350;2022-07-15T05:02:17;4.87;;;2.53;;
23163;SDS011;31429;42.674;23.350;2022-07-15T05:03:17;12.13;;;3.60;;
23163;SDS011;31429;42.674;23.350;2022-07-15T05:04:18;11.50;;;3.63;;
23163;SDS011;31429;42.674;23.350;2022-07-15T05:05:19;6.80;;;3.00;;
23163;SDS011;31429;42.674;23.350;2022-07-15T05:06:19;6.00;;;2.57;;
23163;SDS011;31429;42.674;23.350;2022-07-15T05:07:20;4.83;;;2.87;;
23163;SDS011;31429;42.674;23.350;2022-07-15T05:08:21;7.83;;;3.00;;
23163;SDS011;31429;42.674;23.350;2022-07-15T05:09:22;7.23;;;2.90;;
23163;SDS011;31429;42.674;23.350;2022-07-15T05:10:24;4.37;;;2.40;;
23163;SDS011;31429;42.674;23.350;2022-07-15T05:11:24;8.77;;;3.00;;
23163;SDS011;31429;42.674;23.350;2022-07-15T05:12:25;4.13;;;2.77;;
23163;SDS011;31429;42.674;23.350;2022-07-15T05:13:26;5.03;;;3.23;;
23163;SDS011;31429;42.674;23.350;2022-07-15T05:14:27;3.50;;;2.80;;
23163;SDS011;31429;42.674;23.350;2022-07-15T05:15:27;5.43;;;2.87;;
23163;SDS011;31429;42.674;23.350;2022-07-15T05:16:28;8.57;;;2.80;;
23163;SDS011;31429;42.674;23.350;2022-07-15T05:17:30;7.07;;;2.83;;
23163;SDS011;31429;42.674;23.350;2022-07-15T05:18:31;6.53;;;3.20;;
23163;SDS011;31429;42.674;23.350;2022-07-15T05:19:31;4.80;;;3.03;;
23163;SDS011;31429;42.674;23.350;2022-07-15T05:20:32;3.00;;;2.70;;
23163;SDS011;31429;42.674;23.350;2022-07-15T05:21:33;5.00;;;2.80;;
23163;SDS011;31429;42.674;23.350;2022-07-15T05:22:33;4.13;;;2.63;;
23163;SDS011;31429;42.674;23.350;2022-07-15T05:23:34;7.27;;;3.20;;
23163;SDS011;31429;42.674;23.350;2022-07-15T05:24:35;6.17;;;3.20;;
23163;SDS011;31429;42.674;23.350;2022-07-15T05:25:38;5.07;;;3.23;;
23163;SDS011;31429;42.674;23.350;2022-07-15T05:26:39;7.70;;;3.23;;
23163;SDS011;31429;42.674;23.350;2022-07-15T05:27:39;5.63;;;3.50;;
23163;SDS011;31429;42.674;23.350;2022-07-15T05:28:40;8.07;;;3.50;;
23163;SDS011;31429;42.674;23.350;2022-07-15T05:29:41;7.50;;;2.97;;
23163;SDS011;31429;42.674;23.350;2022-07-15T05:30:41;10.40;;;3.93;;
23163;SDS011;31429;42.674;23.350;2022-07-15T05:31:42;6.50;;;4.00;;
23163;SDS011;31429;42.674;23.350;2022-07-15T05:32:43;5.37;;;3.30;;
23163;SDS011;31429;42.674;23.350;2022-07-15T05:33:44;6.53;;;3.17;;
23163;SDS011;31429;42.674;23.350;2022-07-15T05:34:44;5.63;;;3.33;;
23163;SDS011;31429;42.674;23.350;2022-07-15T05:35:45;9.47;;;8.57;;
23163;SDS011;31429;42.674;23.350;2022-07-15T05:36:46;6.33;;;4.43;;
23163;SDS011;31429;42.674;23.350;2022-07-15T05:37:46;4.37;;;2.87;;
23163;SDS011;31429;42.674;23.350;2022-07-15T05:38:47;5.17;;;2.70;;
23163;SDS011;31429;42.674;23.350;2022-07-15T05:39:48;6.83;;;3.03;;
23163;SDS011;31429;42.674;23.350;2022-07-15T05:40:55;4.70;;;2.83;;
23163;SDS011;31429;42.674;23.350;2022-07-15T05:41:56;5.73;;;3.43;;
23163;SDS011;31429;42.674;23.350;2022-07-15T05:42:58;6.47;;;3.30;;
23163;SDS011;31429;42.674;23.350;2022-07-15T05:43:59;5.83;;;3.20;;
23163;SDS011;31429;42.674;23.350;2022-07-15T05:45:00;14.70;;;3.90;;
23163;SDS011;31429;42.674;23.350;2022-07-15T05:46:01;8.53;;;3.70;;
23163;SDS011;31429;42.674;23.350;2022-07-15T05:47:02;6.97;;;3.83;;
23163;SDS011;31429;42.674;23.350;2022-07-15T05:48:03;6.63;;;3.30;;
23163;SDS011;31429;42.674;23.350;2022-07-15T05:49:04;7.33;;;3.40;;
23163;SDS011;31429;42.674;23.350;2022-07-15T05:50:05;7.10;;;3.47;;
23163;SDS011;31429;42.674;23.350;2022-07-15T05:51:06;6.80;;;3.40;;
23163;SDS011;31429;42.674;23.350;2022-07-15T05:52:07;5.83;;;3.13;;
23163;SDS011;31429;42.674;23.350;2022-07-15T05:53:08;12.27;;;3.07;;
23163;SDS011;31429;42.674;23.350;2022-07-15T05:54:09;8.40;;;3.60;;
23163;SDS011;31429;42.674;23.350;2022-07-15T05:55:13;9.23;;;3.53;;
23163;SDS011;31429;42.674;23.350;2022-07-15T05:56:15;5.67;;;3.23;;
23163;SDS011;31429;42.674;23.350;2022-07-15T05:57:16;10.00;;;3.13;;
23163;SDS011;31429;42.674;23.350;2022-07-15T05:58:16;4.73;;;2.87;;
23163;SDS011;31429;42.674;23.350;2022-07-15T05:59:17;10.27;;;3.40;;
23163;SDS011;31429;42.674;23.350;2022-07-15T06:00:18;8.57;;;3.30;;
23163;SDS011;31429;42.674;23.350;2022-07-15T06:01:19;8.50;;;3.63;;
23163;SDS011;31429;42.674;23.350;2022-07-15T06:02:21;5.77;;;3.23;;
23163;SDS011;31429;42.674;23.350;2022-07-15T06:03:22;12.97;;;4.00;;